Etusivu
METAR-TAF:

METAR-TAF

Lentoasemat :

Uppsala, Ruotsi

Leveyspiiri: 59-53N, Pituuspiiri: 017-36E, korkeus merenpinnasta: 21 m

Tämänhetkinen sää

Tämä raportti tehtiin 21 minuuttia sitten, kello 13.50 UTC
Tuuli 16 kn pohjoisesta puuskistuen 26 kn:hen
Lämpötila 1°C
Kosteus 40%
Ilmanpaine 1027 hPa
Näkyvyys 10 km tai enemmän
ei pilviä alle 1500 m:ssä eikä cumulonimbus-pilviä

METAR: ESCM 301350Z 01016G26KT CAVOK 01/M11 Q1027

Aika: 16:11 (14:11 UTC)

Sääennuste

Tämä raportti tehtiin 2 tuntia ja 46 minuuttia sitten, kello 11.25 UTC
Ennuste voimassa 30. päivästä klo 12 UTC - 30. päivään klo 14 UTC
Tuuli 15 kn pohjoisesta puuskistuen 27 kn:hen
Näkyvyys 10 km tai enemmän
Hajanaisia pilviä 3500 ft:n korkeudessa
Ajoittain
30. päivästä klo 12 UTC - 30. päivään klo 14 UTC
Näkyvyys: 0500 m
Hajonneita pilviä 800 ft:n korkeudessa
lumikuuroja

TAF: ESCM 301125Z 3012/3014 36015G27KT 9999 SCT035 TEMPO 3012/3014 0500 SHSN BKN008 RMK MIL

Säähavainnot ja -ennusteet yli 4000 lentoasemalta (METAR- ja TAF-raportit).

Käytössä olevat sääasemat on merkitty karttaan keltaisilla ja punaisilla pisteillä.

Aseta hiiri pisteen päälle nähdäksesi sääaseman nimen.

Klikkaa sitten nähdäksesi säähavainnot ja -ennusteet.

Kartan vaihtaminen: klikkaa mustalla rastilla varustettuja vihreitä pisteitä, niin voit zoomata sisään; viivalla varustettua vihreää pistettä, niin voit zoomata ulos tai vihreitä nuolia, niin pääset viereisille kartoille.


METAR-TAF: